| time (UTC) | temp F | wind direction | speed knots | gust knots | rain 1hr in | rain 24hr in | rain mn in | humidity % | barometer mb |
| 20260502233439 | 65 | 287 | 0.9 | 5.2 | 0.00 | 0.00 | 0.00 | 36 | 1010.0 |
| 20260502232941 | 65 | 286 | 1.7 | 5.2 | 0.00 | 0.00 | 0.00 | 34 | 1010.1 |
| 20260502232711 | 65 | 218 | 1.7 | 4.3 | 0.00 | 0.00 | 0.00 | 35 | 1010.0 |
| 20260502231938 | 65 | 209 | 1.7 | 4.3 | 0.00 | 0.00 | 0.00 | 34 | 1010.0 |
| 20260502231439 | 65 | 195 | 0.9 | 2.6 | 0.00 | 0.00 | 0.00 | 35 | 1010.3 |
| 20260502231208 | 65 | 194 | 1.7 | 5.2 | 0.00 | 0.00 | 0.00 | 35 | 1010.1 |
| 20260502230437 | 65 | 194 | 1.7 | 5.2 | 0.00 | 0.00 | 0.00 | 35 | 1010.1 |
| 20260502225937 | 65 | 200 | 0.9 | 3.5 | 0.00 | 0.00 | 0.00 | 33 | 1010.3 |
| 20260502225438 | 65 | 202 | 0.9 | 2.6 | 0.00 | 0.00 | 0.00 | 33 | 1010.2 |
| 20260502225207 | 65 | 202 | 0.9 | 2.6 | 0.00 | 0.00 | 0.00 | 34 | 1010.4 |
| 20260502224435 | 65 | 202 | 0.9 | 2.6 | 0.00 | 0.00 | 0.00 | 35 | 1010.4 |
| 20260502223936 | 65 | 202 | 0.9 | 2.6 | 0.00 | 0.00 | 0.00 | 34 | 1010.4 |
| 20260502223434 | 65 | 202 | 0.9 | 2.6 | 0.00 | 0.00 | 0.00 | 33 | 1010.4 |
| 20260502222932 | 65 | 200 | 1.7 | 5.2 | 0.00 | 0.00 | 0.00 | 34 | 1010.5 |
| 20260502222431 | 65 | 200 | 1.7 | 5.2 | 0.00 | 0.00 | 0.00 | 32 | 1010.5 |
| 20260502221931 | 65 | 227 | 0.9 | 2.6 | 0.00 | 0.00 | 0.00 | 34 | 1010.6 |
| 20260502221431 | 65 | 229 | 0.9 | 2.6 | 0.00 | 0.00 | 0.00 | 33 | 1010.5 |
| 20260502220932 | 65 | 248 | 0.9 | 4.3 | 0.00 | 0.00 | 0.00 | 34 | 1010.6 |
| 20260502220432 | 65 | 210 | 0.9 | 4.3 | 0.00 | 0.00 | 0.00 | 34 | 1010.6 |
| 20260502215929 | 65 | 224 | 1.7 | 3.5 | 0.00 | 0.00 | 0.00 | 33 | 1010.6 |
| 20260502215429 | 65 | 267 | 1.7 | 5.2 | 0.00 | 0.00 | 0.00 | 33 | 1010.6 |
| 20260502214929 | 65 | 238 | 2.6 | 6.1 | 0.00 | 0.00 | 0.00 | 33 | 1010.6 |
| 20260502214427 | 65 | 302 | 2.6 | 7.8 | 0.00 | 0.00 | 0.00 | 32 | 1010.7 |
| 20260502213927 | 65 | 219 | 2.6 | 7.8 | 0.00 | 0.00 | 0.00 | 33 | 1010.8 |
| 20260502213429 | 65 | 273 | 1.7 | 6.1 | 0.00 | 0.00 | 0.00 | 33 | 1010.9 |
| 20260502212927 | 65 | 246 | 1.7 | 3.5 | 0.00 | 0.00 | 0.00 | 33 | 1011.0 |
| 20260502212658 | 66 | 286 | 2.6 | 8.7 | 0.00 | 0.00 | 0.00 | 33 | 1011.0 |
| 20260502211925 | 66 | 196 | 1.7 | 8.7 | 0.00 | 0.00 | 0.00 | 32 | 1011.2 |
| 20260502211425 | 66 | 215 | 1.7 | 7.0 | 0.00 | 0.00 | 0.00 | 33 | 1011.1 |
| 20260502210925 | 66 | 284 | 2.6 | 7.0 | 0.00 | 0.00 | 0.00 | 32 | 1011.2 |
| 20260502210425 | 66 | 296 | 2.6 | 7.8 | 0.00 | 0.00 | 0.00 | 34 | 1011.4 |
| 20260502205925 | 66 | 171 | 3.5 | 8.7 | 0.00 | 0.00 | 0.00 | 33 | 1011.6 |
| 20260502205424 | 66 | 224 | 3.5 | 11.3 | 0.00 | 0.00 | 0.00 | 33 | 1011.7 |
| 20260502205155 | 65 | 204 | 2.6 | 11.3 | 0.00 | 0.00 | 0.00 | 33 | 1011.6 |
| 20260502204425 | 65 | 190 | 2.6 | 7.8 | 0.00 | 0.00 | 0.00 | 32 | 1011.9 |
| 20260502204156 | 65 | 230 | 2.6 | 7.8 | 0.00 | 0.00 | 0.00 | 33 | 1011.8 |
| 20260502203423 | 65 | 207 | 2.6 | 7.8 | 0.00 | 0.00 | 0.00 | 32 | 1012.0 |
| 20260502202924 | 65 | 219 | 2.6 | 7.8 | 0.00 | 0.00 | 0.00 | 33 | 1012.3 |
| 20260502202423 | 65 | 223 | 2.6 | 9.6 | 0.00 | 0.00 | 0.00 | 33 | 1012.5 |
| 20260502201922 | 65 | 271 | 3.5 | 9.6 | 0.00 | 0.00 | 0.00 | 33 | 1012.5 |
| 20260502201421 | 65 | 202 | 3.5 | 9.6 | 0.00 | 0.00 | 0.00 | 35 | 1012.5 |
| 20260502200922 | 65 | 194 | 3.5 | 8.7 | 0.00 | 0.00 | 0.00 | 32 | 1012.6 |
| 20260502200421 | 65 | 213 | 3.5 | 8.7 | 0.00 | 0.00 | 0.00 | 34 | 1013.0 |
| 20260502195921 | 65 | 211 | 2.6 | 8.7 | 0.00 | 0.00 | 0.00 | 32 | 1012.8 |
| 20260502195422 | 64 | 201 | 2.6 | 6.1 | 0.00 | 0.00 | 0.00 | 35 | 1013.0 |
| 20260502194921 | 63 | 194 | 3.5 | 10.4 | 0.00 | 0.00 | 0.00 | 32 | 1013.1 |
| 20260502194421 | 63 | 224 | 4.3 | 10.4 | 0.00 | 0.00 | 0.00 | 33 | 1013.2 |
| 20260502193921 | 63 | 178 | 4.3 | 9.6 | 0.00 | 0.00 | 0.00 | 33 | 1013.2 |
| 20260502193421 | 63 | 168 | 4.3 | 9.6 | 0.00 | 0.00 | 0.00 | 32 | 1013.3 |
| 20260502192921 | 63 | 194 | 3.5 | 8.7 | 0.00 | 0.00 | 0.00 | 32 | 1013.4 |
| 20260502192424 | 63 | 196 | 2.6 | 6.1 | 0.00 | 0.00 | 0.00 | 36 | 1013.7 |
| 20260502192419 | 63 | 304 | 2.6 | 6.1 | 0.00 | 0.00 | 0.00 | 33 | 1013.5 |
| 20260502191418 | 62 | 199 | 3.5 | 12.2 | 0.00 | 0.00 | 0.00 | 36 | 1013.8 |
| 20260502190920 | 62 | 190 | 3.5 | 12.2 | 0.00 | 0.00 | 0.00 | 35 | 1013.9 |
| 20260502190417 | 62 | 210 | 2.6 | 7.0 | 0.00 | 0.00 | 0.00 | 36 | 1014.1 |
| 20260502185918 | 61 | 205 | 3.5 | 11.3 | 0.00 | 0.00 | 0.00 | 35 | 1014.2 |
| 20260502185417 | 61 | 226 | 3.5 | 11.3 | 0.00 | 0.00 | 0.00 | 34 | 1014.3 |
| 20260502184918 | 61 | 187 | 2.6 | 11.3 | 0.00 | 0.00 | 0.00 | 33 | 1014.3 |
| 20260502184418 | 61 | 189 | 2.6 | 6.1 | 0.00 | 0.00 | 0.00 | 34 | 1014.4 |
| 20260502183920 | 62 | 314 | 2.6 | 7.8 | 0.00 | 0.00 | 0.00 | 34 | 1014.5 |
| 20260502183916 | 62 | 269 | 1.7 | 7.8 | 0.00 | 0.00 | 0.00 | 36 | 1014.4 |
| 20260502183144 | 61 | 183 | 2.6 | 6.1 | 0.00 | 0.00 | 0.00 | 35 | 1014.5 |
| 20260502183035 | 61 | 243 | 2.6 | 8.7 | 0.00 | 0.00 | 0.00 | 34 | 1014.6 |
| 20260502181910 | 61 | 186 | 2.6 | 8.7 | 0.00 | 0.00 | 0.00 | 34 | 1014.8 |
| 20260502181412 | 61 | 221 | 2.6 | 6.1 | 0.00 | 0.00 | 0.00 | 35 | 1014.7 |
| 20260502180911 | 61 | 286 | 2.6 | 6.1 | 0.00 | 0.00 | 0.00 | 36 | 1014.9 |
| 20260502180642 | 60 | 281 | 2.6 | 7.0 | 0.00 | 0.00 | 0.00 | 34 | 1014.9 |
| 20260502170408 | 59 | 111 | 1.7 | 7.0 | 0.00 | 0.00 | 0.00 | 39 | 1015.8 |
| 20260502163907 | 57 | 223 | 3.5 | 9.6 | 0.00 | 0.00 | 0.00 | 35 | 1016.2 |
| 20260502163407 | 58 | 203 | 2.6 | 7.8 | 0.00 | 0.00 | 0.00 | 37 | 1016.2 |
| 20260502163138 | 58 | 178 | 1.7 | 4.3 | 0.00 | 0.00 | 0.00 | 37 | 1016.3 |
| 20260502162408 | 58 | 225 | 1.7 | 4.3 | 0.00 | 0.00 | 0.00 | 37 | 1016.3 |
| 20260502162138 | 57 | 242 | 2.6 | 7.8 | 0.00 | 0.00 | 0.00 | 37 | 1016.4 |
| 20260502161637 | 57 | 215 | 2.6 | 8.7 | 0.00 | 0.00 | 0.00 | 41 | 1016.5 |
| 20260502160907 | 57 | 194 | 2.6 | 8.7 | 0.00 | 0.00 | 0.00 | 36 | 1016.6 |
| 20260502160406 | 57 | 199 | 2.6 | 7.0 | 0.00 | 0.00 | 0.00 | 40 | 1016.6 |
| 20260502160138 | 57 | 243 | 3.5 | 7.0 | 0.00 | 0.00 | 0.00 | 39 | 1016.7 |
| 20260502151912 | 54 | 265 | 1.7 | 5.2 | 0.00 | 0.00 | 0.00 | 44 | 1017.2 |
| 20260502151908 | 54 | 219 | 2.6 | 5.2 | 0.00 | 0.00 | 0.00 | 43 | 1017.1 |
| 20260502150908 | 54 | 304 | 1.7 | 2.6 | 0.00 | 0.00 | 0.00 | 47 | 1017.2 |
| 20260502150407 | 53 | 209 | 1.7 | 3.5 | 0.00 | 0.00 | 0.00 | 45 | 1017.4 |
| 20260502150403 | 53 | 225 | 1.7 | 3.5 | 0.00 | 0.00 | 0.00 | 47 | 1017.2 |
| 20260502130352 | 39 | 26 | 0.0 | 1.7 | 0.00 | 0.00 | 0.00 | 89 | 1017.9 |
| 20260502130125 | 38 | 26 | 0.0 | 1.7 | 0.00 | 0.00 | 0.00 | 91 | 1017.9 |
| 20260502123352 | 34 | 26 | 0.0 | 0.0 | 0.00 | 0.00 | 0.00 | 93 | 1017.8 |
| 20260502122851 | 34 | 26 | 0.0 | 0.0 | 0.00 | 0.00 | 0.00 | 93 | 1017.8 |
| 20260502122351 | 33 | 26 | 0.0 | 0.0 | 0.00 | 0.00 | 0.00 | 93 | 1017.8 |
| 20260502122123 | 33 | 26 | 0.0 | 0.0 | 0.00 | 0.00 | 0.00 | 92 | 1017.8 |
| 20260502121621 | 33 | 26 | 0.0 | 0.0 | 0.00 | 0.00 | 0.00 | 92 | 1017.8 |
| 20260502120851 | 32 | 26 | 0.0 | 0.0 | 0.00 | 0.00 | 0.00 | 92 | 1017.6 |
| 20260502120350 | 32 | 26 | 0.0 | 0.0 | 0.00 | 0.00 | 0.00 | 92 | 1017.7 |
| 20260502115850 | 32 | 26 | 0.0 | 0.0 | 0.00 | 0.00 | 0.00 | 92 | 1017.7 |
| 20260502115351 | 31 | 26 | 0.0 | 0.0 | 0.00 | 0.00 | 0.00 | 92 | 1017.7 |
| 20260502114852 | 31 | 26 | 0.0 | 0.0 | 0.00 | 0.00 | 0.00 | 92 | 1017.8 |
| 20260502114623 | 31 | 26 | 0.0 | 0.0 | 0.00 | 0.00 | 0.00 | 91 | 1017.8 |
| 20260502114121 | 31 | 26 | 0.0 | 0.0 | 0.00 | 0.00 | 0.00 | 91 | 1017.8 |
| 20260502113349 | 31 | 26 | 0.0 | 0.0 | 0.00 | 0.00 | 0.00 | 91 | 1017.9 |
| 20260502112847 | 31 | 26 | 0.0 | 0.0 | 0.00 | 0.00 | 0.00 | 91 | 1017.7 |
| 20260502112620 | 31 | 26 | 0.0 | 0.0 | 0.00 | 0.00 | 0.00 | 91 | 1017.7 |
| 20260502111849 | 31 | 26 | 0.0 | 0.0 | 0.00 | 0.00 | 0.00 | 91 | 1017.6 |
| 20260502111349 | 31 | 26 | 0.0 | 0.0 | 0.00 | 0.00 | 0.00 | 91 | 1017.5 |
| 20260502110849 | 31 | 26 | 0.0 | 0.0 | 0.00 | 0.00 | 0.00 | 90 | 1017.6 |
| 20260502110349 | 31 | 26 | 0.0 | 0.0 | 0.00 | 0.00 | 0.00 | 90 | 1017.5 |
| 20260502105849 | 31 | 26 | 0.0 | 0.0 | 0.00 | 0.00 | 0.00 | 90 | 1017.4 |
| 20260502105619 | 31 | 26 | 0.0 | 0.0 | 0.00 | 0.00 | 0.00 | 90 | 1017.6 |
| 20260502104845 | 31 | 26 | 0.0 | 0.0 | 0.00 | 0.00 | 0.00 | 90 | 1017.5 |
| 20260502104347 | 31 | 26 | 0.0 | 0.0 | 0.00 | 0.00 | 0.00 | 90 | 1017.6 |
| 20260502103845 | 31 | 26 | 0.0 | 0.0 | 0.00 | 0.00 | 0.00 | 90 | 1017.6 |
| 20260502103348 | 31 | 26 | 0.0 | 0.0 | 0.00 | 0.00 | 0.00 | 90 | 1017.6 |
| 20260502102847 | 31 | 26 | 0.0 | 0.0 | 0.00 | 0.00 | 0.00 | 90 | 1017.5 |
| 20260502102346 | 31 | 26 | 0.0 | 0.0 | 0.00 | 0.00 | 0.00 | 89 | 1017.6 |
| 20260502101845 | 31 | 26 | 0.0 | 0.0 | 0.00 | 0.00 | 0.00 | 89 | 1017.7 |
| 20260502101618 | 31 | 26 | 0.0 | 0.0 | 0.00 | 0.00 | 0.00 | 89 | 1017.6 |
| 20260502100846 | 31 | 26 | 0.0 | 0.0 | 0.00 | 0.00 | 0.00 | 89 | 1017.5 |
| 20260502100345 | 31 | 26 | 0.0 | 0.0 | 0.00 | 0.00 | 0.00 | 89 | 1017.6 |
| 20260502091345 | 32 | 26 | 0.0 | 0.0 | 0.00 | 0.00 | 0.00 | 89 | 1017.4 |
| 20260502090843 | 33 | 26 | 0.0 | 0.0 | 0.00 | 0.00 | 0.00 | 89 | 1017.4 |
| 20260502090343 | 33 | 26 | 0.0 | 0.0 | 0.00 | 0.00 | 0.00 | 90 | 1017.4 |
| 20260502071341 | 35 | 26 | 0.0 | 0.0 | 0.00 | 0.00 | 0.00 | 87 | 1017.5 |
| 20260502071109 | 34 | 26 | 0.0 | 0.0 | 0.00 | 0.00 | 0.00 | 86 | 1017.5 |
| 20260502070607 | 34 | 26 | 0.0 | 0.0 | 0.00 | 0.00 | 0.00 | 86 | 1017.6 |
| 20260502065837 | 34 | 26 | 0.0 | 0.0 | 0.00 | 0.00 | 0.00 | 86 | 1017.5 |
| 20260502065336 | 35 | 26 | 0.0 | 0.0 | 0.00 | 0.00 | 0.00 | 85 | 1017.6 |
| 20260502064835 | 35 | 26 | 0.0 | 0.0 | 0.00 | 0.00 | 0.00 | 86 | 1017.6 |
| 20260502064604 | 35 | 26 | 0.0 | 0.0 | 0.00 | 0.00 | 0.00 | 85 | 1017.6 |
| 20260502063835 | 35 | 26 | 0.0 | 0.0 | 0.00 | 0.00 | 0.00 | 85 | 1017.8 |
| 20260502063605 | 35 | 26 | 0.0 | 0.0 | 0.00 | 0.00 | 0.00 | 85 | 1017.8 |
| 20260502062835 | 35 | 26 | 0.0 | 0.0 | 0.00 | 0.00 | 0.00 | 85 | 1017.8 |
| 20260502062334 | 36 | 26 | 0.0 | 0.0 | 0.00 | 0.00 | 0.00 | 85 | 1017.8 |
| 20260502062105 | 36 | 26 | 0.0 | 0.0 | 0.00 | 0.00 | 0.00 | 85 | 1017.8 |
| 20260502061334 | 36 | 26 | 0.0 | 0.0 | 0.00 | 0.00 | 0.00 | 85 | 1017.8 |
| 20260502060833 | 35 | 26 | 0.0 | 0.0 | 0.00 | 0.00 | 0.00 | 84 | 1018.0 |
| 20260502060338 | 35 | 26 | 0.0 | 0.0 | 0.00 | 0.00 | 0.00 | 83 | 1017.9 |
| 20260502060334 | 35 | 26 | 0.0 | 0.0 | 0.00 | 0.00 | 0.00 | 83 | 1017.9 |
| 20260502055337 | 36 | 26 | 0.0 | 0.0 | 0.00 | 0.00 | 0.00 | 83 | 1018.0 |
| 20260502055333 | 36 | 26 | 0.0 | 0.0 | 0.00 | 0.00 | 0.00 | 83 | 1017.7 |
| 20260502054331 | 36 | 26 | 0.0 | 0.0 | 0.00 | 0.00 | 0.00 | 83 | 1017.9 |
| 20260502053830 | 36 | 26 | 0.0 | 0.0 | 0.00 | 0.00 | 0.00 | 82 | 1018.0 |
| 20260502053330 | 36 | 26 | 0.0 | 0.0 | 0.00 | 0.00 | 0.00 | 82 | 1018.0 |
| 20260502053102 | 36 | 26 | 0.0 | 0.0 | 0.00 | 0.00 | 0.00 | 82 | 1017.8 |
| 20260502052601 | 36 | 26 | 0.0 | 0.0 | 0.00 | 0.00 | 0.00 | 82 | 1017.8 |
| 20260502051835 | 37 | 26 | 0.0 | 0.0 | 0.00 | 0.00 | 0.00 | 83 | 1017.9 |
| 20260502051830 | 37 | 26 | 0.0 | 0.0 | 0.00 | 0.00 | 0.00 | 83 | 1017.8 |
| 20260502050829 | 37 | 26 | 0.0 | 0.0 | 0.00 | 0.00 | 0.00 | 83 | 1017.9 |
| 20260502050600 | 37 | 26 | 0.0 | 0.0 | 0.00 | 0.00 | 0.00 | 82 | 1017.9 |
| 20260502050058 | 37 | 26 | 0.0 | 0.0 | 0.00 | 0.00 | 0.00 | 81 | 1018.0 |
| 20260502045328 | 37 | 26 | 0.0 | 0.0 | 0.00 | 0.00 | 0.00 | 81 | 1017.9 |
| 20260502044829 | 37 | 26 | 0.0 | 0.0 | 0.00 | 0.00 | 0.00 | 81 | 1018.0 |
| 20260502044328 | 38 | 26 | 0.0 | 0.0 | 0.00 | 0.00 | 0.00 | 81 | 1018.0 |
| 20260502043828 | 38 | 26 | 0.0 | 0.0 | 0.00 | 0.00 | 0.00 | 80 | 1017.8 |
| 20260502043328 | 38 | 26 | 0.0 | 0.0 | 0.00 | 0.00 | 0.00 | 79 | 1017.9 |
| 20260502042828 | 38 | 26 | 0.0 | 0.0 | 0.00 | 0.00 | 0.00 | 79 | 1018.0 |
| 20260502042329 | 38 | 26 | 0.0 | 0.0 | 0.00 | 0.00 | 0.00 | 79 | 1018.0 |
| 20260502041827 | 38 | 26 | 0.0 | 0.0 | 0.00 | 0.00 | 0.00 | 78 | 1018.0 |
| 20260502041327 | 39 | 26 | 0.0 | 0.0 | 0.00 | 0.00 | 0.00 | 78 | 1018.0 |
| 20260502040826 | 39 | 26 | 0.0 | 0.0 | 0.00 | 0.00 | 0.00 | 77 | 1018.2 |
| 20260502040326 | 39 | 26 | 0.0 | 0.0 | 0.00 | 0.00 | 0.00 | 77 | 1018.1 |
| 20260502035826 | 39 | 26 | 0.0 | 0.0 | 0.00 | 0.00 | 0.00 | 76 | 1018.1 |
| 20260502034825 | 40 | 26 | 0.0 | 0.0 | 0.00 | 0.00 | 0.00 | 75 | 1018.1 |
| 20260502034324 | 40 | 26 | 0.0 | 0.0 | 0.00 | 0.00 | 0.00 | 74 | 1018.2 |
| 20260502033823 | 40 | 26 | 0.0 | 0.0 | 0.00 | 0.00 | 0.00 | 70 | 1018.2 |
| 20260502033326 | 40 | 26 | 0.0 | 0.0 | 0.00 | 0.00 | 0.00 | 70 | 1018.2 |
| 20260502033058 | 41 | 26 | 0.0 | 0.0 | 0.00 | 0.00 | 0.00 | 70 | 1018.1 |
| 20260502032324 | 41 | 26 | 0.0 | 0.0 | 0.00 | 0.00 | 0.00 | 70 | 1018.2 |
| 20260502032054 | 41 | 26 | 0.0 | 0.0 | 0.00 | 0.00 | 0.00 | 68 | 1018.1 |
| 20260502031553 | 41 | 26 | 0.0 | 0.0 | 0.00 | 0.00 | 0.00 | 64 | 1018.2 |
| 20260502030821 | 42 | 26 | 0.0 | 0.0 | 0.00 | 0.00 | 0.00 | 64 | 1018.2 |
| 20260502030321 | 42 | 26 | 0.0 | 0.0 | 0.00 | 0.00 | 0.00 | 64 | 1018.2 |
| 20260502030055 | 42 | 26 | 0.0 | 0.0 | 0.00 | 0.00 | 0.00 | 65 | 1018.3 |
| 20260502025554 | 42 | 26 | 0.0 | 0.0 | 0.00 | 0.00 | 0.00 | 63 | 1018.2 |
| 20260502024822 | 43 | 26 | 0.0 | 0.0 | 0.00 | 0.00 | 0.00 | 62 | 1018.1 |
| 20260502024321 | 44 | 26 | 0.0 | 0.0 | 0.00 | 0.00 | 0.00 | 64 | 1018.0 |
| 20260502023819 | 44 | 26 | 0.0 | 0.0 | 0.00 | 0.00 | 0.00 | 64 | 1018.0 |
| 20260502023321 | 44 | 26 | 0.0 | 0.0 | 0.00 | 0.00 | 0.00 | 58 | 1018.1 |
| 20260502022825 | 46 | 26 | 0.0 | 0.0 | 0.00 | 0.00 | 0.00 | 57 | 1018.0 |
| 20260502022819 | 45 | 26 | 0.0 | 0.0 | 0.00 | 0.00 | 0.00 | 61 | 1018.1 |
| 20260502021821 | 46 | 26 | 0.0 | 0.0 | 0.00 | 0.00 | 0.00 | 54 | 1018.0 |
| 20260502021320 | 47 | 26 | 0.0 | 0.0 | 0.00 | 0.00 | 0.00 | 53 | 1018.0 |
| 20260502020819 | 47 | 26 | 0.0 | 0.0 | 0.00 | 0.00 | 0.00 | 48 | 1017.9 |
| 20260502020321 | 47 | 26 | 0.0 | 0.0 | 0.00 | 0.00 | 0.00 | 47 | 1017.9 |
| 20260502015821 | 48 | 26 | 0.0 | 0.0 | 0.00 | 0.00 | 0.00 | 44 | 1017.8 |
| 20260502015551 | 48 | 26 | 0.0 | 0.0 | 0.00 | 0.00 | 0.00 | 42 | 1017.8 |
| 20260502015051 | 49 | 26 | 0.0 | 0.0 | 0.00 | 0.00 | 0.00 | 40 | 1017.8 |
| 20260502014551 | 49 | 26 | 0.0 | 0.0 | 0.00 | 0.00 | 0.00 | 40 | 1017.7 |
| 20260502013821 | 49 | 26 | 0.0 | 0.0 | 0.00 | 0.00 | 0.00 | 41 | 1017.5 |
| 20260502013319 | 50 | 26 | 0.0 | 0.0 | 0.00 | 0.00 | 0.00 | 41 | 1017.5 |
| 20260502012821 | 50 | 26 | 0.0 | 0.0 | 0.00 | 0.00 | 0.00 | 40 | 1017.6 |
| 20260502012557 | 51 | 26 | 0.0 | 1.7 | 0.00 | 0.00 | 0.00 | 38 | 1017.5 |
| 20260502012319 | 51 | 26 | 0.0 | 0.9 | 0.00 | 0.00 | 0.00 | 39 | 1017.5 |
| 20260502011319 | 51 | 26 | 0.9 | 1.7 | 0.00 | 0.00 | 0.00 | 38 | 1017.5 |
| 20260502011055 | 51 | 26 | 0.0 | 1.7 | 0.00 | 0.00 | 0.00 | 38 | 1017.5 |
| 20260502010819 | 51 | 26 | 0.9 | 1.7 | 0.00 | 0.00 | 0.00 | 39 | 1017.5 |
| 20260502010051 | 51 | 26 | 0.0 | 0.9 | 0.00 | 0.00 | 0.00 | 39 | 1017.5 |
| 20260502005550 | 52 | 26 | 0.9 | 0.9 | 0.00 | 0.00 | 0.00 | 36 | 1017.5 |
| 20260502005051 | 52 | 26 | 0.9 | 1.7 | 0.00 | 0.00 | 0.00 | 37 | 1017.4 |
| 20260502004319 | 52 | 26 | 0.9 | 1.7 | 0.00 | 0.00 | 0.00 | 37 | 1017.5 |
| 20260502003819 | 52 | 26 | 0.9 | 2.6 | 0.00 | 0.00 | 0.00 | 36 | 1017.4 |
| 20260502003318 | 52 | 26 | 0.9 | 2.6 | 0.00 | 0.00 | 0.00 | 37 | 1017.5 |
| 20260502002819 | 52 | 26 | 1.7 | 3.5 | 0.00 | 0.00 | 0.00 | 39 | 1017.5 |
| 20260502002322 | 52 | 26 | 0.9 | 1.7 | 0.00 | 0.00 | 0.00 | 36 | 1017.4 |
| 20260502002318 | 52 | 26 | 1.7 | 3.5 | 0.00 | 0.00 | 0.00 | 40 | 1017.4 |
| 20260502001320 | 53 | 26 | 0.9 | 1.7 | 0.00 | 0.00 | 0.00 | 36 | 1017.3 |
| 20260502001316 | 53 | 26 | 0.9 | 1.7 | 0.00 | 0.00 | 0.00 | 36 | 1017.4 |
| 20260502000317 | 53 | 26 | 0.9 | 3.5 | 0.00 | 0.00 | 0.00 | 34 | 1017.3 |
| 20260501235813 | 53 | 26 | 2.6 | 6.1 | 0.00 | 0.00 | 0.00 | 34 | 1017.3 |
| 20260501235312 | 53 | 26 | 1.7 | 6.1 | 0.00 | 0.00 | 0.00 | 32 | 1017.3 |
| 20260501234812 | 53 | 20 | 0.9 | 6.1 | 0.00 | 0.00 | 0.00 | 35 | 1017.4 |
| 20260501234312 | 53 | 19 | 0.9 | 2.6 | 0.00 | 0.00 | 0.00 | 34 | 1017.4 |
| 20260501234048 | 53 | 17 | 2.6 | 7.0 | 0.00 | 0.00 | 0.00 | 33 | 1017.4 |